createdAt,value
2018-08-23T00:00:04.578Z,0.00
2018-08-23T00:01:04.433Z,0.00
2018-08-23T00:02:05.206Z,0.00
2018-08-23T00:03:04.852Z,0.00
2018-08-23T00:04:04.763Z,0.00
2018-08-23T00:05:04.484Z,0.00
2018-08-23T00:06:03.999Z,0.00
2018-08-23T00:07:04.841Z,0.00
2018-08-23T00:08:04.735Z,0.00
2018-08-23T00:09:04.678Z,0.00
2018-08-23T00:10:04.726Z,0.00
2018-08-23T00:11:04.504Z,0.00
2018-08-23T00:12:04.179Z,0.00
2018-08-23T00:13:04.884Z,0.00
2018-08-23T00:14:04.648Z,0.00
2018-08-23T00:15:04.227Z,0.00
2018-08-23T00:16:25.469Z,0.00
2018-08-23T00:17:26.107Z,0.00
2018-08-23T00:18:25.714Z,0.00
2018-08-23T00:19:26.607Z,0.00
2018-08-23T00:20:26.372Z,0.00
2018-08-23T00:21:26.276Z,0.00
2018-08-23T00:22:26.078Z,0.00
2018-08-23T00:23:25.983Z,0.00
2018-08-23T00:24:25.968Z,0.00
2018-08-23T00:25:25.546Z,0.00
2018-08-23T00:26:26.280Z,0.00
2018-08-23T00:27:25.717Z,0.00
2018-08-23T00:28:26.435Z,0.00
2018-08-23T00:29:26.230Z,0.00
2018-08-23T00:30:25.939Z,0.00
2018-08-23T00:31:25.557Z,0.00
2018-08-23T00:32:47.827Z,0.00
2018-08-23T00:33:48.759Z,0.00
2018-08-23T00:34:48.393Z,0.00
2018-08-23T00:35:48.367Z,0.00
2018-08-23T00:36:47.887Z,0.00
2018-08-23T00:37:48.611Z,0.00
2018-08-23T00:38:48.245Z,0.00
2018-08-23T00:39:48.216Z,0.00
2018-08-23T00:40:47.763Z,0.00
2018-08-23T00:41:48.349Z,0.00
2018-08-23T00:42:47.876Z,0.00
2018-08-23T00:43:48.603Z,0.00
2018-08-23T00:44:48.009Z,0.00
2018-08-23T00:45:48.605Z,0.00
2018-08-23T00:46:48.186Z,0.00
2018-08-23T00:47:47.845Z,0.00
2018-08-23T00:48:48.744Z,0.00
2018-08-23T00:49:48.276Z,0.00
2018-08-23T00:50:48.126Z,0.00
2018-08-23T00:52:09.918Z,0.00
2018-08-23T00:53:31.875Z,0.00
2018-08-23T00:54:32.734Z,0.00
2018-08-23T00:55:32.465Z,0.00
2018-08-23T00:56:32.216Z,0.00
2018-08-23T00:57:53.750Z,0.00
2018-08-23T00:58:54.417Z,0.00
2018-08-23T00:59:54.072Z,0.00
2018-08-23T01:00:54.665Z,0.00
2018-08-23T01:01:54.147Z,0.00
2018-08-23T01:02:53.757Z,0.00
2018-08-23T01:04:15.953Z,0.00
2018-08-23T01:05:16.540Z,0.00
2018-08-23T01:06:16.608Z,0.00
2018-08-23T01:07:16.266Z,0.00
2018-08-23T01:08:16.071Z,0.00
2018-08-23T01:09:16.582Z,0.00
2018-08-23T01:10:38.711Z,0.00
2018-08-23T01:12:01.041Z,0.00
2018-08-23T01:13:03.070Z,0.00
2018-08-23T01:14:01.737Z,0.00
2018-08-23T01:15:01.306Z,0.00
2018-08-23T01:16:01.867Z,0.00
2018-08-23T01:17:01.600Z,0.00
2018-08-23T01:18:22.800Z,0.00
2018-08-23T01:19:23.274Z,0.00
2018-08-23T01:20:22.900Z,0.00
2018-08-23T01:22:06.338Z,0.00
2018-08-23T01:23:27.790Z,0.00
2018-08-23T01:24:28.534Z,0.00
2018-08-23T01:25:27.966Z,0.00
2018-08-23T01:26:27.791Z,0.00
2018-08-23T01:27:28.336Z,0.00
2018-08-23T01:28:27.815Z,0.00
2018-08-23T01:29:28.640Z,0.00
2018-08-23T01:30:28.270Z,0.00
2018-08-23T01:31:28.062Z,0.00
2018-08-23T01:32:28.765Z,0.00
2018-08-23T01:33:28.266Z,0.00
2018-08-23T01:34:27.774Z,0.00
2018-08-23T01:35:28.441Z,0.00
2018-08-23T01:36:28.355Z,0.00
2018-08-23T01:37:27.889Z,0.00
2018-08-23T01:38:28.494Z,0.00
2018-08-23T01:39:28.198Z,0.00
2018-08-23T01:40:27.775Z,0.00
2018-08-23T01:41:28.727Z,0.00
2018-08-23T01:42:28.292Z,0.00
2018-08-23T01:43:28.085Z,0.00
2018-08-23T01:44:27.948Z,0.00
2018-08-23T01:45:28.752Z,0.00
2018-08-23T01:46:28.600Z,0.00
2018-08-23T01:47:28.207Z,0.00
2018-08-23T01:48:27.750Z,0.00
2018-08-23T01:49:28.441Z,0.00
2018-08-23T01:50:28.212Z,0.00
2018-08-23T01:51:28.149Z,0.00
2018-08-23T01:52:28.616Z,0.00
2018-08-23T01:53:28.140Z,0.00
2018-08-23T01:54:28.279Z,0.00
2018-08-23T01:55:27.790Z,0.00
2018-08-23T01:56:28.450Z,0.00
2018-08-23T01:57:28.333Z,0.00
2018-08-23T01:58:28.058Z,0.00
2018-08-23T01:59:27.882Z,0.00
2018-08-23T02:00:28.466Z,0.00
2018-08-23T02:01:28.146Z,0.00
2018-08-23T02:02:27.760Z,0.00
2018-08-23T02:03:28.488Z,0.00
2018-08-23T02:04:49.458Z,0.00
2018-08-23T02:05:49.964Z,0.00
2018-08-23T02:07:32.078Z,0.00
2018-08-23T02:08:32.779Z,0.00
2018-08-23T02:09:32.367Z,0.00
2018-08-23T02:10:33.177Z,0.00
2018-08-23T02:11:33.243Z,0.00
2018-08-23T02:12:32.791Z,0.00
2018-08-23T02:13:32.184Z,0.00
2018-08-23T02:14:54.579Z,0.00
2018-08-23T02:15:55.322Z,0.00
2018-08-23T02:16:54.948Z,0.00
2018-08-23T02:17:54.786Z,0.00
2018-08-23T02:18:54.429Z,0.00
2018-08-23T02:19:54.986Z,0.00
2018-08-23T02:20:54.961Z,0.00
2018-08-23T02:22:06.949Z,0.00
2018-08-23T02:22:54.611Z,0.00
2018-08-23T02:23:55.341Z,0.00
2018-08-23T02:25:16.241Z,0.00
2018-08-23T02:26:16.783Z,0.00
2018-08-23T02:27:16.287Z,0.00
2018-08-23T02:28:17.142Z,0.00
2018-08-23T02:29:59.751Z,0.00
2018-08-23T02:31:00.472Z,0.00
2018-08-23T02:32:00.281Z,0.00
2018-08-23T02:32:59.952Z,0.00
2018-08-23T02:34:00.908Z,0.00
2018-08-23T02:35:00.482Z,0.00
2018-08-23T02:36:22.087Z,0.00
2018-08-23T02:37:22.657Z,0.00
2018-08-23T02:38:22.540Z,0.00
2018-08-23T02:39:22.135Z,0.00
2018-08-23T02:40:21.984Z,0.00
2018-08-23T02:41:22.734Z,0.00
2018-08-23T02:42:22.302Z,0.00
2018-08-23T02:43:21.983Z,0.00
2018-08-23T02:44:22.480Z,0.00
2018-08-23T02:45:22.104Z,0.00
2018-08-23T02:46:21.853Z,0.00
2018-08-23T02:47:22.527Z,0.00
2018-08-23T02:49:05.079Z,0.00
2018-08-23T02:50:05.758Z,0.00
2018-08-23T02:51:05.397Z,0.00
2018-08-23T02:52:05.915Z,0.00
2018-08-23T02:53:05.514Z,0.00
2018-08-23T02:54:05.364Z,0.00
2018-08-23T02:55:06.360Z,0.00
2018-08-23T02:56:05.873Z,0.00
2018-08-23T02:57:05.331Z,0.00
2018-08-23T02:58:05.920Z,0.00
2018-08-23T02:59:05.556Z,0.00
2018-08-23T03:00:05.544Z,0.00
2018-08-23T03:01:05.565Z,0.00
2018-08-23T03:02:06.151Z,0.00
2018-08-23T03:03:05.822Z,0.00
2018-08-23T03:04:05.727Z,0.00
2018-08-23T03:05:05.456Z,0.00
2018-08-23T03:06:05.131Z,0.00
2018-08-23T03:07:05.719Z,0.00
2018-08-23T03:08:05.128Z,0.00
2018-08-23T03:09:06.092Z,0.00
2018-08-23T03:10:05.939Z,0.00
2018-08-23T03:11:05.543Z,0.00
2018-08-23T03:12:05.281Z,0.00
2018-08-23T03:13:06.264Z,0.00
2018-08-23T03:14:05.986Z,0.00
2018-08-23T03:15:05.780Z,0.00
2018-08-23T03:16:05.452Z,0.00
2018-08-23T03:17:05.977Z,0.00
2018-08-23T03:18:05.769Z,0.00
2018-08-23T03:19:05.376Z,0.00
2018-08-23T03:20:18.202Z,0.00
2018-08-23T03:21:05.694Z,0.00
2018-08-23T03:22:05.379Z,0.00
2018-08-23T03:23:05.165Z,0.00
2018-08-23T03:24:06.179Z,0.00
2018-08-23T03:25:05.879Z,0.00
2018-08-23T03:26:05.538Z,0.00
2018-08-23T03:27:05.206Z,0.00
2018-08-23T03:28:05.796Z,0.00
2018-08-23T03:29:05.425Z,0.00
2018-08-23T03:30:06.116Z,0.00
2018-08-23T03:31:23.760Z,0.00
2018-08-23T03:32:25.800Z,0.00
2018-08-23T03:33:46.677Z,0.00
2018-08-23T03:34:47.378Z,0.00
2018-08-23T03:35:47.347Z,0.00
2018-08-23T03:36:47.223Z,0.00
2018-08-23T03:37:47.160Z,0.00
2018-08-23T03:38:46.748Z,0.00
2018-08-23T03:39:46.525Z,0.00
2018-08-23T03:40:46.122Z,1.00
2018-08-23T03:41:46.948Z,1.00
2018-08-23T03:42:46.409Z,1.00
2018-08-23T03:44:07.987Z,1.00
2018-08-23T03:45:08.897Z,1.00
2018-08-23T03:46:08.788Z,2.00
2018-08-23T03:47:08.594Z,1.00
2018-08-23T03:48:08.342Z,2.00
2018-08-23T03:49:09.053Z,2.00
2018-08-23T03:50:08.392Z,2.00
2018-08-23T03:51:30.061Z,3.00
2018-08-23T03:52:30.850Z,4.00
2018-08-23T03:53:30.459Z,3.00
2018-08-23T03:55:34.070Z,5.00
2018-08-23T03:56:35.091Z,7.00
2018-08-23T03:57:56.480Z,7.00
2018-08-23T03:58:56.449Z,9.00
2018-08-23T03:59:56.342Z,11.00
2018-08-23T04:00:56.912Z,13.00
2018-08-23T04:01:57.325Z,15.00
2018-08-23T04:02:57.243Z,18.00
2018-08-23T04:03:56.722Z,21.00
2018-08-23T04:04:56.588Z,24.00
2018-08-23T04:05:56.087Z,28.00
2018-08-23T04:06:56.795Z,31.00
2018-08-23T04:07:56.344Z,35.00
2018-08-23T04:09:18.496Z,42.00
2018-08-23T04:10:18.998Z,47.00
2018-08-23T04:11:18.778Z,54.00
2018-08-23T04:12:19.384Z,62.00
2018-08-23T04:13:18.901Z,71.00
2018-08-23T04:15:03.120Z,83.00
2018-08-23T04:16:03.838Z,92.00
2018-08-23T04:17:03.781Z,103.00
2018-08-23T04:18:03.712Z,114.00
2018-08-23T04:19:03.376Z,129.00
2018-08-23T04:20:04.196Z,142.00
2018-08-23T04:21:03.878Z,158.00
2018-08-23T04:22:03.820Z,173.00
2018-08-23T04:23:03.395Z,191.00
2018-08-23T04:24:04.246Z,204.00
2018-08-23T04:25:03.989Z,223.00
2018-08-23T04:26:03.609Z,236.00
2018-08-23T04:27:03.443Z,252.00
2018-08-23T04:28:04.024Z,267.00
2018-08-23T04:29:03.509Z,279.00
2018-08-23T04:30:04.316Z,299.00
2018-08-23T04:31:04.028Z,318.00
2018-08-23T04:32:03.677Z,338.00
2018-08-23T04:33:03.681Z,351.00
2018-08-23T04:34:03.560Z,357.00
2018-08-23T04:35:03.442Z,380.00
2018-08-23T04:36:04.243Z,396.00
2018-08-23T04:37:04.049Z,409.00
2018-08-23T04:38:03.633Z,436.00
2018-08-23T04:39:24.854Z,477.00
2018-08-23T04:40:25.484Z,511.00
2018-08-23T04:41:25.467Z,539.00
2018-08-23T04:42:25.174Z,574.00
2018-08-23T04:43:25.852Z,596.00
2018-08-23T04:44:25.530Z,620.00
2018-08-23T04:45:25.357Z,615.00
2018-08-23T04:46:25.174Z,649.00
2018-08-23T04:47:25.915Z,706.00
2018-08-23T04:48:25.709Z,740.00
2018-08-23T04:49:25.704Z,779.00
2018-08-23T04:50:25.300Z,837.00
2018-08-23T04:51:46.899Z,892.00
2018-08-23T04:52:47.082Z,931.00
2018-08-23T04:53:46.829Z,996.00
2018-08-23T04:54:46.518Z,1039.00
2018-08-23T04:55:47.474Z,1117.00
2018-08-23T04:56:47.169Z,1199.00
2018-08-23T04:57:47.456Z,1228.00
2018-08-23T04:59:08.731Z,1359.00
2018-08-23T05:00:08.718Z,1356.00
2018-08-23T05:01:08.572Z,1439.00
2018-08-23T05:02:31.329Z,1534.00
2018-08-23T05:03:31.388Z,1621.00
2018-08-23T05:04:31.477Z,1660.00
2018-08-23T05:05:31.274Z,1749.00
2018-08-23T05:06:31.499Z,1822.00
2018-08-23T05:07:31.733Z,1853.00
2018-08-23T05:08:31.664Z,1881.00
2018-08-23T05:09:31.846Z,1931.00
2018-08-23T05:10:32.157Z,2045.00
2018-08-23T05:11:32.302Z,2197.00
2018-08-23T05:12:31.928Z,2274.00
2018-08-23T05:13:54.176Z,2321.00
2018-08-23T05:14:54.852Z,2472.00
2018-08-23T05:15:54.920Z,2564.00
2018-08-23T05:16:54.453Z,2634.00
2018-08-23T05:17:54.158Z,2722.00
2018-08-23T05:18:55.370Z,2840.00
2018-08-23T05:19:54.043Z,2962.00
2018-08-23T05:21:16.115Z,3168.00
2018-08-23T05:22:16.915Z,3275.00
2018-08-23T05:23:16.796Z,3348.00
2018-08-23T05:24:16.538Z,3356.00
2018-08-23T05:25:16.581Z,3570.00
2018-08-23T05:26:16.235Z,3837.00
2018-08-23T05:27:37.817Z,4029.00
2018-08-23T05:28:38.164Z,4039.00
2018-08-23T05:29:38.255Z,4157.00
2018-08-23T05:30:59.539Z,4175.00
2018-08-23T05:32:22.212Z,4161.00
2018-08-23T05:33:23.230Z,4222.00
2018-08-23T05:34:23.256Z,4326.00
2018-08-23T05:35:45.223Z,4390.00
2018-08-23T05:36:46.106Z,4581.00
2018-08-23T05:37:45.727Z,4722.00
2018-08-23T05:39:07.311Z,4755.00
2018-08-23T05:40:08.240Z,4829.00
2018-08-23T05:41:08.110Z,4639.00
2018-08-23T05:42:08.206Z,4641.00
2018-08-23T05:43:30.679Z,4541.00
2018-08-23T05:44:31.117Z,4577.00
2018-08-23T05:45:30.222Z,4604.00
2018-08-23T05:46:30.274Z,4793.00
2018-08-23T05:47:30.138Z,4831.00
2018-08-23T05:48:30.138Z,4981.00
2018-08-23T05:49:31.629Z,5125.00
2018-08-23T05:50:53.602Z,5301.00
2018-08-23T05:51:54.706Z,5526.00
2018-08-23T05:52:54.889Z,5875.00
2018-08-23T05:53:53.562Z,6119.00
2018-08-23T05:54:55.601Z,6200.00
2018-08-23T05:55:55.097Z,6344.00
2018-08-23T05:56:54.068Z,6373.00
2018-08-23T05:57:54.167Z,6578.00
2018-08-23T05:58:55.159Z,6337.00
2018-08-23T06:00:37.794Z,6487.00
2018-08-23T06:01:38.790Z,6520.00
2018-08-23T06:02:37.881Z,6404.00
2018-08-23T06:03:38.095Z,6492.00
2018-08-23T06:04:37.996Z,6915.00
2018-08-23T06:06:20.583Z,7724.00
2018-08-23T06:07:43.358Z,8099.00
2018-08-23T06:08:44.368Z,8308.00
2018-08-23T06:09:44.204Z,8504.00
2018-08-23T06:10:44.061Z,8281.00
2018-08-23T06:11:43.978Z,8084.00
2018-08-23T06:12:44.008Z,8246.00
2018-08-23T06:13:43.922Z,8181.00
2018-08-23T06:14:43.996Z,8056.00
2018-08-23T06:15:43.623Z,8370.00
2018-08-23T06:16:43.378Z,8189.00
2018-08-23T06:18:08.029Z,7645.00
2018-08-23T06:19:07.145Z,7733.00
2018-08-23T06:20:06.489Z,7672.00
2018-08-23T06:21:06.651Z,7574.00
2018-08-23T06:22:06.616Z,7733.00
2018-08-23T06:23:06.430Z,7389.00
2018-08-23T06:24:07.342Z,7316.00
2018-08-23T06:25:30.613Z,7377.00
2018-08-23T06:26:29.414Z,7983.00
2018-08-23T06:27:29.373Z,8247.00
2018-08-23T06:28:30.027Z,8371.00
2018-08-23T06:29:31.128Z,9056.00
2018-08-23T06:30:30.293Z,9543.00
2018-08-23T06:31:29.448Z,9840.00
2018-08-23T06:32:29.614Z,10065.00
2018-08-23T06:33:29.724Z,10137.00
2018-08-23T06:34:30.338Z,10614.00
2018-08-23T06:35:29.197Z,10878.00
2018-08-23T06:36:30.267Z,10968.00
2018-08-23T06:37:30.328Z,10897.00
2018-08-23T06:38:29.666Z,11098.00
2018-08-23T06:39:29.542Z,11296.00
2018-08-23T06:40:29.424Z,11275.00
2018-08-23T06:41:29.668Z,10653.00
2018-08-23T06:42:29.640Z,10533.00
2018-08-23T06:43:53.021Z,10322.00
2018-08-23T06:45:15.756Z,11207.00
2018-08-23T06:46:16.956Z,11729.00
2018-08-23T06:47:16.063Z,12271.00
2018-08-23T06:48:16.096Z,12316.00
2018-08-23T06:49:16.166Z,12176.00
2018-08-23T06:50:37.648Z,12409.00
2018-08-23T06:51:38.341Z,13177.00
2018-08-23T06:52:38.490Z,13880.00
2018-08-23T06:53:38.657Z,14884.00
2018-08-23T06:54:38.036Z,14194.00
2018-08-23T06:55:37.925Z,15665.00
2018-08-23T06:56:37.862Z,14873.00
2018-08-23T06:57:37.786Z,16928.00
2018-08-23T06:58:37.941Z,15756.00
2018-08-23T06:59:59.720Z,14598.00
2018-08-23T07:01:22.244Z,15657.00
2018-08-23T07:02:22.231Z,15069.00
2018-08-23T07:03:23.470Z,14866.00
2018-08-23T07:04:22.172Z,15879.00
2018-08-23T07:05:23.090Z,16206.00
2018-08-23T07:06:22.990Z,19080.00
2018-08-23T07:07:23.131Z,22856.00
2018-08-23T07:08:44.618Z,28032.00
2018-08-23T07:09:44.731Z,26080.00
2018-08-23T07:10:44.765Z,22624.00
2018-08-23T07:11:44.668Z,21784.00
2018-08-23T07:12:44.898Z,22880.00
2018-08-23T07:13:44.636Z,21488.00
2018-08-23T07:14:44.604Z,21792.00
2018-08-23T07:15:44.708Z,30368.00
2018-08-23T07:16:44.783Z,29424.00
2018-08-23T07:17:44.521Z,29232.00
2018-08-23T07:18:44.407Z,23032.00
2018-08-23T07:19:45.320Z,23952.00
2018-08-23T07:20:44.927Z,29120.00
2018-08-23T07:21:45.027Z,25424.00
2018-08-23T07:22:44.928Z,26096.00
2018-08-23T07:23:44.634Z,29352.00
2018-08-23T07:24:44.427Z,33152.00
2018-08-23T07:25:45.578Z,36840.00
2018-08-23T07:26:44.499Z,36496.00
2018-08-23T07:27:44.714Z,36104.00
2018-08-23T07:28:44.520Z,29528.00
2018-08-23T07:29:45.305Z,27304.00
2018-08-23T07:30:44.880Z,26080.00
2018-08-23T07:32:28.075Z,23680.00
2018-08-23T07:33:27.875Z,22320.00
2018-08-23T07:34:27.825Z,21248.00
2018-08-23T07:35:28.782Z,27688.00
2018-08-23T07:36:28.676Z,24248.00
2018-08-23T07:37:28.622Z,23376.00
2018-08-23T07:38:50.042Z,27464.00
2018-08-23T07:39:51.328Z,33224.00
2018-08-23T07:40:50.495Z,34904.00
2018-08-23T07:41:50.601Z,38520.00
2018-08-23T07:42:50.775Z,40448.00
2018-08-23T07:43:50.646Z,40344.00
2018-08-23T07:44:51.524Z,23032.00
2018-08-23T07:46:33.627Z,40160.00
2018-08-23T07:47:34.380Z,44728.00
2018-08-23T07:48:34.530Z,46944.00
2018-08-23T07:49:34.526Z,46392.00
2018-08-23T07:50:34.419Z,47960.00
2018-08-23T07:51:34.450Z,47008.00
2018-08-23T07:52:34.528Z,46592.00
2018-08-23T07:53:34.843Z,46776.00
2018-08-23T07:54:33.723Z,47000.00
2018-08-23T07:55:34.530Z,49120.00
2018-08-23T07:56:34.349Z,49776.00
2018-08-23T07:57:34.311Z,51120.00
2018-08-23T07:58:56.053Z,48080.00
2018-08-23T07:59:57.221Z,47872.00
2018-08-23T08:00:56.390Z,49144.00
2018-08-23T08:01:56.196Z,53368.00
2018-08-23T08:02:56.286Z,52856.00
2018-08-23T08:03:56.332Z,52928.00
2018-08-23T08:04:56.287Z,53984.00
2018-08-23T08:05:56.160Z,51976.00
2018-08-23T08:06:56.370Z,54176.00
2018-08-23T08:07:56.274Z,55024.00
2018-08-23T08:08:56.236Z,57920.00
2018-08-23T08:09:55.997Z,57144.00
2018-08-23T08:10:56.858Z,56288.00
2018-08-23T08:12:18.282Z,46008.00
2018-08-23T08:13:19.617Z,60576.00
2018-08-23T08:14:18.266Z,58976.00
2018-08-23T08:15:19.557Z,60992.00
2018-08-23T08:16:18.805Z,60640.00
2018-08-23T08:17:18.847Z,59976.00
2018-08-23T08:18:19.317Z,63816.00
2018-08-23T08:19:19.428Z,30240.00
2018-08-23T08:20:19.173Z,65264.00
2018-08-23T08:21:19.350Z,65535.00
2018-08-23T08:22:42.077Z,65535.00
2018-08-23T08:23:41.375Z,64152.00
2018-08-23T08:24:41.218Z,42896.00
2018-08-23T08:25:40.927Z,35472.00
2018-08-23T08:27:04.128Z,53680.00
2018-08-23T08:28:04.241Z,55960.00
2018-08-23T08:29:04.137Z,33896.00
2018-08-23T08:30:04.395Z,61752.00
2018-08-23T08:31:04.183Z,19672.00
2018-08-23T08:32:04.114Z,65535.00
2018-08-23T08:33:04.037Z,25344.00
2018-08-23T08:34:25.942Z,58672.00
2018-08-23T08:35:25.778Z,65535.00
2018-08-23T08:36:26.484Z,60344.00
2018-08-23T08:37:26.664Z,55072.00
2018-08-23T08:38:25.471Z,65535.00
2018-08-23T08:39:25.812Z,62296.00
2018-08-23T08:41:08.982Z,57008.00
2018-08-23T08:42:09.779Z,65535.00
2018-08-23T08:43:32.637Z,33320.00
2018-08-23T08:44:31.758Z,65535.00
2018-08-23T08:45:31.413Z,65535.00
2018-08-23T08:46:32.218Z,65535.00
2018-08-23T08:47:32.218Z,35472.00
2018-08-23T08:48:32.422Z,65535.00
2018-08-23T08:49:32.584Z,65535.00
2018-08-23T08:50:32.731Z,65535.00
2018-08-23T08:51:31.976Z,65535.00
2018-08-23T08:52:53.524Z,65535.00
2018-08-23T08:53:54.261Z,65535.00
2018-08-23T08:54:54.258Z,65535.00
2018-08-23T08:55:54.118Z,65535.00
2018-08-23T08:56:54.517Z,35272.00
2018-08-23T08:57:54.829Z,64624.00
2018-08-23T08:58:54.492Z,65535.00
2018-08-23T08:59:55.405Z,65535.00
2018-08-23T09:01:39.488Z,57944.00
2018-08-23T09:02:40.546Z,65535.00
2018-08-23T09:03:39.526Z,65535.00
2018-08-23T09:04:39.334Z,65535.00
2018-08-23T09:05:40.509Z,65472.00
2018-08-23T09:06:41.205Z,32568.00
2018-08-23T09:07:40.256Z,65535.00
2018-08-23T09:08:40.177Z,65535.00
2018-08-23T09:09:40.025Z,65535.00
2018-08-23T09:11:02.079Z,65535.00
2018-08-23T09:12:02.201Z,65535.00
2018-08-23T09:13:02.182Z,65535.00
2018-08-23T09:14:02.251Z,38552.00
2018-08-23T09:15:02.071Z,65535.00
2018-08-23T09:16:01.777Z,65535.00
2018-08-23T09:17:01.645Z,65535.00
2018-08-23T09:18:02.557Z,65535.00
2018-08-23T09:19:02.411Z,37600.00
2018-08-23T09:20:02.348Z,65535.00
2018-08-23T09:21:23.993Z,57496.00
2018-08-23T09:22:24.074Z,65535.00
2018-08-23T09:23:24.899Z,65535.00
2018-08-23T09:24:24.984Z,65535.00
2018-08-23T09:25:25.048Z,65535.00
2018-08-23T09:26:23.774Z,65535.00
2018-08-23T09:27:24.764Z,65535.00
2018-08-23T09:28:47.151Z,65535.00
2018-08-23T09:29:47.476Z,65535.00
2018-08-23T09:30:47.194Z,65535.00
2018-08-23T09:31:47.662Z,65535.00
2018-08-23T09:32:47.551Z,65535.00
2018-08-23T09:33:47.807Z,65535.00
2018-08-23T09:34:47.741Z,65535.00
2018-08-23T09:35:47.819Z,65535.00
2018-08-23T09:36:47.007Z,65535.00
2018-08-23T09:37:46.952Z,65535.00
2018-08-23T09:38:47.172Z,65535.00
2018-08-23T09:39:46.958Z,65535.00
2018-08-23T09:40:46.850Z,65535.00
2018-08-23T09:41:47.599Z,65535.00
2018-08-23T09:42:47.859Z,65535.00
2018-08-23T09:43:47.932Z,65535.00
2018-08-23T09:44:47.020Z,65535.00
2018-08-23T09:45:46.898Z,65535.00
2018-08-23T09:47:31.331Z,65535.00
2018-08-23T09:48:53.963Z,65535.00
2018-08-23T09:49:54.072Z,65535.00
2018-08-23T09:50:54.376Z,65535.00
2018-08-23T09:51:53.505Z,65535.00
2018-08-23T09:52:53.607Z,65535.00
2018-08-23T09:53:53.755Z,65535.00
2018-08-23T09:54:54.000Z,65535.00
2018-08-23T09:56:15.846Z,65535.00
2018-08-23T09:57:16.018Z,65535.00
2018-08-23T09:58:59.615Z,65535.00
2018-08-23T10:00:00.425Z,65535.00
2018-08-23T10:01:00.946Z,65535.00
2018-08-23T10:02:00.699Z,65535.00
2018-08-23T10:03:22.665Z,58224.00
2018-08-23T10:04:22.752Z,65535.00
2018-08-23T10:05:22.567Z,65535.00
2018-08-23T10:06:23.733Z,65535.00
2018-08-23T10:07:22.921Z,65535.00
2018-08-23T10:08:23.123Z,30664.00
2018-08-23T10:09:23.293Z,65535.00
2018-08-23T10:10:23.537Z,65535.00
2018-08-23T10:11:24.009Z,25032.00
2018-08-23T10:12:23.277Z,65535.00
2018-08-23T10:13:23.095Z,60496.00
2018-08-23T10:14:23.038Z,65535.00
2018-08-23T10:15:45.647Z,65535.00
2018-08-23T10:16:46.057Z,65535.00
2018-08-23T10:17:46.238Z,65535.00
2018-08-23T10:18:45.374Z,65535.00
2018-08-23T10:19:46.284Z,65535.00
2018-08-23T10:20:46.469Z,65535.00
2018-08-23T10:21:45.770Z,65535.00
2018-08-23T10:22:46.030Z,65535.00
2018-08-23T10:23:45.835Z,65535.00
2018-08-23T10:24:45.769Z,65535.00
2018-08-23T10:25:46.046Z,65535.00
2018-08-23T10:26:46.314Z,65535.00
2018-08-23T10:27:45.982Z,65535.00
2018-08-23T10:28:46.197Z,65535.00
2018-08-23T10:29:46.118Z,50296.00
2018-08-23T10:30:46.455Z,37936.00
2018-08-23T10:31:45.380Z,36328.00
2018-08-23T10:32:46.460Z,60944.00
2018-08-23T10:33:45.659Z,31336.00
2018-08-23T10:34:45.475Z,29032.00
2018-08-23T10:35:45.393Z,33528.00
2018-08-23T10:36:46.063Z,34128.00
2018-08-23T10:37:46.191Z,65535.00
2018-08-23T10:38:45.008Z,65535.00
2018-08-23T10:40:07.988Z,65535.00
2018-08-23T10:41:07.879Z,42824.00
2018-08-23T10:42:07.731Z,65535.00
2018-08-23T10:43:08.499Z,39456.00
2018-08-23T10:44:51.926Z,43200.00
2018-08-23T10:46:14.433Z,54064.00
2018-08-23T10:47:15.321Z,46848.00
2018-08-23T10:48:37.018Z,51560.00
2018-08-23T10:49:37.649Z,32872.00
2018-08-23T10:50:37.695Z,53904.00
2018-08-23T10:51:37.612Z,39000.00
2018-08-23T10:52:37.335Z,32208.00
2018-08-23T10:53:37.223Z,31032.00
2018-08-23T10:54:37.136Z,44072.00
2018-08-23T10:55:37.366Z,35936.00
2018-08-23T10:56:37.271Z,37872.00
2018-08-23T10:57:37.098Z,65535.00
2018-08-23T10:58:58.909Z,52472.00
2018-08-23T10:59:58.886Z,65535.00
2018-08-23T11:00:58.802Z,44208.00
2018-08-23T11:01:58.871Z,65535.00
2018-08-23T11:03:20.376Z,38712.00
2018-08-23T11:04:21.101Z,35488.00
2018-08-23T11:05:21.200Z,57408.00
2018-08-23T11:06:21.170Z,37768.00
2018-08-23T11:07:20.892Z,45208.00
2018-08-23T11:08:20.933Z,34456.00
2018-08-23T11:09:20.932Z,28920.00
2018-08-23T11:10:21.415Z,34160.00
2018-08-23T11:11:21.294Z,65535.00
2018-08-23T11:12:21.394Z,65535.00
2018-08-23T11:13:21.015Z,43288.00
2018-08-23T11:14:21.152Z,51880.00
2018-08-23T11:15:42.548Z,46560.00
2018-08-23T11:16:43.841Z,41312.00
2018-08-23T11:17:42.717Z,65535.00
2018-08-23T11:19:05.192Z,65535.00
2018-08-23T11:20:05.305Z,47216.00
2018-08-23T11:21:06.143Z,40632.00
2018-08-23T11:22:05.936Z,65535.00
2018-08-23T11:23:05.614Z,65535.00
2018-08-23T11:24:05.576Z,65535.00
2018-08-23T11:25:06.118Z,33984.00
2018-08-23T11:26:06.424Z,32280.00
2018-08-23T11:27:05.335Z,45768.00
2018-08-23T11:28:05.160Z,52320.00
2018-08-23T11:29:50.753Z,45816.00
2018-08-23T11:30:50.562Z,35616.00
2018-08-23T11:31:50.379Z,45216.00
2018-08-23T11:32:50.268Z,33360.00
2018-08-23T11:33:50.165Z,31880.00
2018-08-23T11:34:50.140Z,65535.00
2018-08-23T11:35:52.730Z,65535.00
2018-08-23T11:37:11.791Z,65535.00
2018-08-23T11:38:11.803Z,65535.00
2018-08-23T11:39:11.866Z,65535.00
2018-08-23T11:40:11.742Z,65535.00
2018-08-23T11:41:11.483Z,65535.00
2018-08-23T11:42:11.447Z,45584.00
2018-08-23T11:43:33.070Z,54880.00
2018-08-23T11:45:19.663Z,65535.00
2018-08-23T11:46:19.967Z,33312.00
2018-08-23T11:48:04.416Z,32472.00
2018-08-23T11:49:05.205Z,31624.00
2018-08-23T11:50:04.018Z,34936.00
2018-08-23T11:51:04.791Z,65535.00
2018-08-23T11:52:48.012Z,65535.00
2018-08-23T11:54:10.562Z,65535.00
2018-08-23T11:55:11.497Z,49928.00
2018-08-23T11:56:12.234Z,65535.00
2018-08-23T11:57:11.233Z,50808.00
2018-08-23T11:58:33.075Z,35864.00
2018-08-23T11:59:54.845Z,56728.00
2018-08-23T12:00:54.856Z,30624.00
2018-08-23T12:02:39.100Z,65535.00
2018-08-23T12:03:40.182Z,65535.00
2018-08-23T12:04:39.226Z,50304.00
2018-08-23T12:06:00.628Z,65032.00
2018-08-23T12:07:01.458Z,65535.00
2018-08-23T12:08:01.590Z,65535.00
2018-08-23T12:09:01.902Z,65535.00
2018-08-23T12:10:02.367Z,65535.00
2018-08-23T12:11:01.599Z,43048.00
2018-08-23T12:12:01.481Z,65535.00
2018-08-23T12:13:01.453Z,65535.00
2018-08-23T12:14:22.868Z,65535.00
2018-08-23T12:15:24.013Z,65535.00
2018-08-23T12:16:23.027Z,39072.00
2018-08-23T12:17:23.665Z,52376.00
2018-08-23T12:18:45.256Z,65535.00
2018-08-23T12:19:46.619Z,65535.00
2018-08-23T12:20:46.828Z,65535.00
2018-08-23T12:22:08.606Z,65535.00
2018-08-23T12:23:08.702Z,36408.00
2018-08-23T12:24:07.701Z,65535.00
2018-08-23T12:25:07.849Z,65535.00
2018-08-23T12:26:08.945Z,45280.00
2018-08-23T12:27:08.745Z,29672.00
2018-08-23T12:28:07.660Z,28536.00
2018-08-23T12:29:08.966Z,34488.00
2018-08-23T12:30:10.339Z,46936.00
2018-08-23T12:31:09.220Z,65535.00
2018-08-23T12:32:29.736Z,65535.00
2018-08-23T12:33:29.695Z,33032.00
2018-08-23T12:34:53.114Z,65535.00
2018-08-23T12:35:53.348Z,65535.00
2018-08-23T12:36:52.401Z,34224.00
2018-08-23T12:37:53.868Z,62568.00
2018-08-23T12:38:53.417Z,39936.00
2018-08-23T12:39:53.120Z,65535.00
2018-08-23T12:41:15.373Z,65535.00
2018-08-23T12:42:37.118Z,65535.00
2018-08-23T12:43:37.789Z,65535.00
2018-08-23T12:44:38.369Z,65535.00
2018-08-23T12:45:37.346Z,65535.00
2018-08-23T12:46:37.283Z,65535.00
2018-08-23T12:47:37.751Z,34424.00
2018-08-23T12:48:37.733Z,65535.00
2018-08-23T12:49:39.326Z,65535.00
2018-08-23T12:50:40.172Z,41520.00
2018-08-23T12:51:59.668Z,65535.00
2018-08-23T12:53:00.911Z,43552.00
2018-08-23T12:54:00.089Z,34552.00
2018-08-23T12:55:01.645Z,51744.00
2018-08-23T12:56:00.884Z,39760.00
2018-08-23T12:56:59.918Z,58536.00
2018-08-23T12:58:01.609Z,65535.00
2018-08-23T12:58:59.676Z,31600.00
2018-08-23T12:59:59.990Z,27584.00
2018-08-23T13:01:22.883Z,60240.00